createdAt,value
2016-12-16T00:00:21.062Z,0
2016-12-16T00:01:30.554Z,0
2016-12-16T00:02:40.162Z,0
2016-12-16T00:03:49.963Z,0
2016-12-16T00:04:59.454Z,0
2016-12-16T00:06:09.239Z,0
2016-12-16T00:07:19.079Z,0
2016-12-16T00:08:28.880Z,0
2016-12-16T00:09:38.697Z,0
2016-12-16T00:10:48.215Z,0
2016-12-16T00:11:57.829Z,0
2016-12-16T00:13:07.692Z,0
2016-12-16T00:14:17.490Z,0
2016-12-16T00:15:27.425Z,0
2016-12-16T00:16:36.737Z,0
2016-12-16T00:17:46.519Z,0
2016-12-16T00:18:56.037Z,0
2016-12-16T00:20:05.199Z,0
2016-12-16T00:21:15.039Z,0
2016-12-16T00:22:24.849Z,0
2016-12-16T00:23:34.428Z,0
2016-12-16T00:24:44.248Z,0
2016-12-16T00:25:53.732Z,0
2016-12-16T00:27:02.588Z,0
2016-12-16T00:28:12.385Z,0
2016-12-16T00:29:21.905Z,0
2016-12-16T00:30:31.383Z,0
2016-12-16T00:31:40.254Z,0
2016-12-16T00:32:50.145Z,0
2016-12-16T00:33:59.944Z,0
2016-12-16T00:35:09.420Z,0
2016-12-16T00:36:19.248Z,0
2016-12-16T00:37:28.713Z,0
2016-12-16T00:38:38.537Z,0
2016-12-16T00:39:47.072Z,0
2016-12-16T00:40:57.008Z,0
2016-12-16T00:42:06.813Z,0
2016-12-16T00:43:16.296Z,0
2016-12-16T00:44:25.855Z,0
2016-12-16T00:45:35.641Z,0
2016-12-16T00:46:45.126Z,0
2016-12-16T00:47:54.953Z,0
2016-12-16T00:49:04.425Z,0
2016-12-16T00:50:14.118Z,0
2016-12-16T00:51:23.945Z,0
2016-12-16T00:52:33.137Z,0
2016-12-16T00:53:42.986Z,0
2016-12-16T00:54:52.679Z,0
2016-12-16T00:56:02.473Z,0
2016-12-16T00:57:11.669Z,0
2016-12-16T00:58:20.925Z,0
2016-12-16T00:59:30.611Z,0
2016-12-16T01:00:40.467Z,0
2016-12-16T01:01:50.492Z,0
2016-12-16T01:02:59.984Z,0
2016-12-16T01:04:09.513Z,0
2016-12-16T01:05:19.027Z,0
2016-12-16T01:06:28.864Z,0
2016-12-16T01:07:38.763Z,0
2016-12-16T01:08:48.561Z,0
2016-12-16T01:09:57.862Z,0
2016-12-16T01:11:07.379Z,0
2016-12-16T01:12:17.168Z,0
2016-12-16T01:13:26.984Z,0
2016-12-16T01:14:36.782Z,0
2016-12-16T01:15:46.276Z,0
2016-12-16T01:16:55.587Z,0
2016-12-16T01:18:05.072Z,0
2016-12-16T01:19:14.850Z,0
2016-12-16T01:20:24.327Z,0
2016-12-16T01:21:33.496Z,0
2016-12-16T01:22:42.986Z,0
2016-12-16T01:23:52.795Z,0
2016-12-16T01:25:02.331Z,0
2016-12-16T01:26:11.496Z,0
2016-12-16T01:27:21.297Z,0
2016-12-16T01:28:30.800Z,0
2016-12-16T01:29:40.274Z,0
2016-12-16T01:30:50.121Z,0
2016-12-16T01:31:59.953Z,0
2016-12-16T01:33:09.480Z,0
2016-12-16T01:34:19.319Z,0
2016-12-16T01:35:28.967Z,0
2016-12-16T01:36:38.486Z,0
2016-12-16T01:37:48.265Z,0
2016-12-16T01:38:57.745Z,0
2016-12-16T01:40:07.235Z,0
2016-12-16T01:41:16.722Z,0
2016-12-16T01:42:26.244Z,0
2016-12-16T01:43:35.401Z,0
2016-12-16T01:44:45.185Z,0
2016-12-16T01:45:54.960Z,0
2016-12-16T01:47:04.754Z,0
2016-12-16T01:48:14.277Z,0
2016-12-16T01:49:23.799Z,0
2016-12-16T01:50:33.626Z,0
2016-12-16T01:51:43.426Z,0
2016-12-16T01:52:52.617Z,0
2016-12-16T01:54:02.227Z,0
2016-12-16T01:55:12.013Z,0
2016-12-16T01:56:21.552Z,0
2016-12-16T01:57:31.036Z,0
2016-12-16T01:58:40.897Z,0
2016-12-16T01:59:50.711Z,0
2016-12-16T02:01:00.197Z,0
2016-12-16T02:02:09.690Z,0
2016-12-16T02:03:19.177Z,0
2016-12-16T02:04:28.991Z,0
2016-12-16T02:05:38.815Z,0
2016-12-16T02:06:48.305Z,0
2016-12-16T02:07:57.801Z,0
2016-12-16T02:09:07.326Z,0
2016-12-16T02:10:17.159Z,0
2016-12-16T02:11:26.654Z,0
2016-12-16T02:12:36.121Z,0
2016-12-16T02:13:45.592Z,0
2016-12-16T02:14:55.391Z,0
2016-12-16T02:16:04.979Z,0
2016-12-16T02:17:14.461Z,0
2016-12-16T02:18:23.948Z,0
2016-12-16T02:19:33.802Z,0
2016-12-16T02:20:43.619Z,0
2016-12-16T02:21:53.442Z,0
2016-12-16T02:23:02.907Z,0
2016-12-16T02:24:12.689Z,0
2016-12-16T02:25:22.456Z,0
2016-12-16T02:26:32.141Z,0
2016-12-16T02:27:41.707Z,0
2016-12-16T02:28:51.195Z,0
2016-12-16T02:30:00.689Z,0
2016-12-16T02:31:09.911Z,0
2016-12-16T02:32:19.706Z,0
2016-12-16T02:33:29.239Z,0
2016-12-16T02:34:39.061Z,0
2016-12-16T02:35:48.897Z,0
2016-12-16T02:36:58.755Z,0
2016-12-16T02:38:08.567Z,0
2016-12-16T02:39:18.426Z,0
2016-12-16T02:40:28.259Z,0
2016-12-16T02:41:38.062Z,0
2016-12-16T02:42:47.733Z,0
2016-12-16T02:43:57.194Z,0
2016-12-16T02:45:06.802Z,0
2016-12-16T02:46:16.646Z,0
2016-12-16T02:47:26.133Z,0
2016-12-16T02:48:35.962Z,0
2016-12-16T02:49:45.758Z,0
2016-12-16T02:50:55.591Z,0
2016-12-16T02:52:05.071Z,0
2016-12-16T02:53:14.843Z,0
2016-12-16T02:54:24.645Z,0
2016-12-16T02:55:34.119Z,0
2016-12-16T02:56:43.909Z,0
2016-12-16T02:57:53.703Z,0
2016-12-16T02:59:03.178Z,0
2016-12-16T03:00:13.028Z,0
2016-12-16T03:01:22.864Z,0
2016-12-16T03:02:32.514Z,0
2016-12-16T03:03:42.009Z,0
2016-12-16T03:04:51.814Z,0
2016-12-16T03:06:01.764Z,0
2016-12-16T03:07:10.931Z,0
2016-12-16T03:08:20.753Z,0
2016-12-16T03:09:30.546Z,0
2016-12-16T03:10:40.035Z,0
2016-12-16T03:11:49.529Z,0
2016-12-16T03:12:58.998Z,0
2016-12-16T03:14:08.472Z,0
2016-12-16T03:15:17.975Z,0
2016-12-16T03:16:27.774Z,0
2016-12-16T03:17:37.552Z,0
2016-12-16T03:18:47.066Z,0
2016-12-16T03:19:56.559Z,0
2016-12-16T03:21:06.040Z,0
2016-12-16T03:22:15.841Z,0
2016-12-16T03:23:25.631Z,0
2016-12-16T03:24:35.418Z,0
2016-12-16T03:25:44.896Z,0
2016-12-16T03:26:54.398Z,0
2016-12-16T03:28:04.190Z,0
2016-12-16T03:29:13.710Z,0
2016-12-16T03:30:23.217Z,0
2016-12-16T03:31:32.994Z,0
2016-12-16T03:32:42.816Z,0
2016-12-16T03:33:52.619Z,0
2016-12-16T03:35:02.415Z,0
2016-12-16T03:36:12.193Z,0
2016-12-16T03:37:21.975Z,0
2016-12-16T03:38:31.759Z,0
2016-12-16T03:39:41.535Z,0
2016-12-16T03:40:51.336Z,0
2016-12-16T03:42:01.125Z,0
2016-12-16T03:43:10.661Z,0
2016-12-16T03:44:19.821Z,0
2016-12-16T03:45:29.314Z,0
2016-12-16T03:46:39.162Z,0
2016-12-16T03:47:48.347Z,0
2016-12-16T03:48:58.112Z,0
2016-12-16T03:50:07.582Z,0
2016-12-16T03:51:17.049Z,0
2016-12-16T03:52:26.681Z,0
2016-12-16T03:53:35.895Z,0
2016-12-16T03:54:45.696Z,0
2016-12-16T03:55:55.170Z,0
2016-12-16T03:57:04.024Z,0
2016-12-16T03:58:14.017Z,0
2016-12-16T03:59:23.862Z,0
2016-12-16T04:00:33.391Z,0
2016-12-16T04:01:43.328Z,0
2016-12-16T04:02:53.133Z,0
2016-12-16T04:04:02.933Z,0
2016-12-16T04:05:12.726Z,0
2016-12-16T04:06:22.239Z,0
2016-12-16T04:07:31.714Z,0
2016-12-16T04:08:41.486Z,0
2016-12-16T04:09:51.267Z,0
2016-12-16T04:11:01.076Z,0
2016-12-16T04:12:10.914Z,0
2016-12-16T04:13:20.710Z,0
2016-12-16T04:14:30.491Z,0
2016-12-16T04:15:39.702Z,0
2016-12-16T04:16:49.483Z,0
2016-12-16T04:17:59.271Z,0
2016-12-16T04:19:08.440Z,0
2016-12-16T04:20:18.349Z,0
2016-12-16T04:21:27.516Z,0
2016-12-16T04:22:36.989Z,0
2016-12-16T04:23:46.774Z,0
2016-12-16T04:24:56.604Z,0
2016-12-16T04:26:06.131Z,0
2016-12-16T04:27:15.958Z,0
2016-12-16T04:28:25.750Z,0
2016-12-16T04:29:34.934Z,0
2016-12-16T04:30:44.438Z,0
2016-12-16T04:31:53.924Z,0
2016-12-16T04:33:03.744Z,0
2016-12-16T04:34:13.572Z,0
2016-12-16T04:35:23.063Z,0
2016-12-16T04:36:32.874Z,0
2016-12-16T04:37:42.696Z,0
2016-12-16T04:38:52.203Z,0
2016-12-16T04:40:01.396Z,0
2016-12-16T04:41:11.333Z,0
2016-12-16T04:42:21.126Z,0
2016-12-16T04:43:30.932Z,0
2016-12-16T04:44:40.764Z,0
2016-12-16T04:45:50.589Z,0
2016-12-16T04:47:00.078Z,0
2016-12-16T04:48:09.872Z,0
2016-12-16T04:49:19.038Z,0
2016-12-16T04:50:28.881Z,0
2016-12-16T04:51:38.040Z,0
2016-12-16T04:52:47.634Z,0
2016-12-16T04:53:57.118Z,0
2016-12-16T04:55:06.907Z,0
2016-12-16T04:56:15.757Z,0
2016-12-16T04:57:25.608Z,0
2016-12-16T04:58:35.095Z,0
2016-12-16T04:59:44.901Z,0
2016-12-16T05:00:54.707Z,0
2016-12-16T05:02:04.499Z,0
2016-12-16T05:03:14.264Z,0
2016-12-16T05:04:23.742Z,0
2016-12-16T05:05:33.253Z,0
2016-12-16T05:06:42.520Z,0
2016-12-16T05:07:52.054Z,0
2016-12-16T05:09:01.541Z,0
2016-12-16T05:10:11.051Z,0
2016-12-16T05:11:20.836Z,0
2016-12-16T05:12:30.658Z,0
2016-12-16T05:13:39.819Z,0
2016-12-16T05:14:49.013Z,0
2016-12-16T05:15:58.507Z,0
2016-12-16T05:17:08.131Z,0
2016-12-16T05:18:17.989Z,0
2016-12-16T05:19:27.485Z,0
2016-12-16T05:20:37.298Z,0
2016-12-16T05:21:46.805Z,0
2016-12-16T05:22:56.582Z,0
2016-12-16T05:24:05.786Z,0
2016-12-16T05:25:14.946Z,0
2016-12-16T05:26:24.958Z,0
2016-12-16T05:27:34.461Z,0
2016-12-16T05:28:43.696Z,0
2016-12-16T05:29:53.515Z,0
2016-12-16T05:31:03.314Z,0
2016-12-16T05:32:13.101Z,0
2016-12-16T05:33:22.578Z,0
2016-12-16T05:34:32.069Z,0
2016-12-16T05:35:41.571Z,0
2016-12-16T05:36:51.068Z,0
2016-12-16T05:38:00.845Z,0
2016-12-16T05:39:10.537Z,0
2016-12-16T05:40:20.350Z,0
2016-12-16T05:41:29.530Z,0
2016-12-16T05:42:39.000Z,0
2016-12-16T05:43:48.796Z,0
2016-12-16T05:44:58.300Z,0
2016-12-16T05:46:08.219Z,0
2016-12-16T05:47:18.057Z,0
2016-12-16T05:48:27.933Z,0
2016-12-16T05:49:37.710Z,0
2016-12-16T05:50:47.207Z,0
2016-12-16T05:51:56.055Z,0
2016-12-16T05:53:05.240Z,0
2016-12-16T05:54:15.101Z,0
2016-12-16T05:55:24.587Z,0
2016-12-16T05:56:34.393Z,0
2016-12-16T05:57:43.855Z,0
2016-12-16T05:58:53.637Z,0
2016-12-16T06:00:03.227Z,0
2016-12-16T06:01:13.020Z,0
2016-12-16T06:02:22.188Z,0
2016-12-16T06:03:31.967Z,0
2016-12-16T06:04:41.445Z,0
2016-12-16T06:05:51.249Z,0
2016-12-16T06:07:00.847Z,0
2016-12-16T06:08:10.350Z,0
2016-12-16T06:09:19.887Z,0
2016-12-16T06:10:29.423Z,0
2016-12-16T06:11:39.227Z,0
2016-12-16T06:12:48.726Z,0
2016-12-16T06:13:58.223Z,0
2016-12-16T06:15:07.456Z,0
2016-12-16T06:16:17.275Z,0
2016-12-16T06:17:27.074Z,0
2016-12-16T06:18:36.868Z,0
2016-12-16T06:19:46.659Z,0
2016-12-16T06:20:56.130Z,0
2016-12-16T06:22:05.602Z,0
2016-12-16T06:23:15.093Z,0
2016-12-16T06:24:24.718Z,0
2016-12-16T06:25:34.512Z,0
2016-12-16T06:26:44.344Z,0
2016-12-16T06:27:54.136Z,0
2016-12-16T06:29:03.621Z,0
2016-12-16T06:30:13.570Z,0
2016-12-16T06:31:23.396Z,0
2016-12-16T06:32:33.198Z,0
2016-12-16T06:33:43.035Z,0
2016-12-16T06:34:52.999Z,0
2016-12-16T06:36:02.162Z,0
2016-12-16T06:37:11.724Z,0
2016-12-16T06:38:21.187Z,0
2016-12-16T06:39:30.357Z,0
2016-12-16T06:40:39.833Z,0
2016-12-16T06:41:49.332Z,0
2016-12-16T06:42:58.804Z,0
2016-12-16T06:44:08.408Z,0
2016-12-16T06:45:17.912Z,0
2016-12-16T06:46:27.390Z,0
2016-12-16T06:47:37.286Z,0
2016-12-16T06:48:47.079Z,0
2016-12-16T06:49:56.557Z,0
2016-12-16T06:51:06.331Z,0
2016-12-16T06:52:16.116Z,0
2016-12-16T06:53:25.739Z,0
2016-12-16T06:54:35.220Z,0
2016-12-16T06:55:44.478Z,0
2016-12-16T06:56:54.262Z,0
2016-12-16T06:58:04.055Z,0
2016-12-16T06:59:13.829Z,0
2016-12-16T07:00:23.321Z,0
2016-12-16T07:01:33.112Z,0
2016-12-16T07:02:42.611Z,0
2016-12-16T07:03:52.190Z,0
2016-12-16T07:05:02.054Z,0
2016-12-16T07:06:11.556Z,0
2016-12-16T07:07:21.045Z,5
2016-12-16T07:08:30.546Z,5
2016-12-16T07:09:40.348Z,5
2016-12-16T07:10:49.932Z,5
2016-12-16T07:11:59.450Z,5
2016-12-16T07:13:08.622Z,5
2016-12-16T07:14:18.168Z,5
2016-12-16T07:15:27.978Z,5
2016-12-16T07:16:37.448Z,5
2016-12-16T07:17:47.256Z,10
2016-12-16T07:18:57.043Z,10
2016-12-16T07:20:06.825Z,10
2016-12-16T07:21:16.390Z,10
2016-12-16T07:22:26.278Z,10
2016-12-16T07:23:36.064Z,10
2016-12-16T07:24:45.874Z,15
2016-12-16T07:25:55.649Z,15
2016-12-16T07:27:05.460Z,15
2016-12-16T07:28:14.938Z,20
2016-12-16T07:29:24.737Z,20
2016-12-16T07:30:34.732Z,20
2016-12-16T07:31:44.207Z,20
2016-12-16T07:32:53.679Z,25
2016-12-16T07:34:03.146Z,25
2016-12-16T07:35:12.629Z,25
2016-12-16T07:36:22.432Z,30
2016-12-16T07:37:32.351Z,30
2016-12-16T07:38:42.236Z,30
2016-12-16T07:39:52.035Z,35
2016-12-16T07:41:01.550Z,35
2016-12-16T07:42:11.488Z,40
2016-12-16T07:43:21.264Z,40
2016-12-16T07:44:30.813Z,40
2016-12-16T07:45:40.665Z,45
2016-12-16T07:46:50.225Z,45
2016-12-16T07:47:59.729Z,45
2016-12-16T07:49:09.251Z,50
2016-12-16T07:50:19.030Z,50
2016-12-16T07:51:28.502Z,50
2016-12-16T07:52:37.973Z,55
2016-12-16T07:53:47.819Z,55
2016-12-16T07:54:57.291Z,60
2016-12-16T07:56:07.094Z,60
2016-12-16T07:57:16.617Z,60
2016-12-16T07:58:26.081Z,65
2016-12-16T07:59:35.560Z,70
2016-12-16T08:00:45.032Z,65
2016-12-16T08:01:54.842Z,65
2016-12-16T08:03:04.671Z,70
2016-12-16T08:04:14.164Z,70
2016-12-16T08:05:23.736Z,75
2016-12-16T08:06:33.618Z,75
2016-12-16T08:07:43.130Z,75
2016-12-16T08:08:53.000Z,75
2016-12-16T08:10:02.265Z,80
2016-12-16T08:11:11.864Z,80
2016-12-16T08:12:21.364Z,80
2016-12-16T08:13:31.172Z,80
2016-12-16T08:14:40.478Z,80
2016-12-16T08:15:50.303Z,80
2016-12-16T08:17:00.092Z,85
2016-12-16T08:18:09.877Z,85
2016-12-16T08:19:19.727Z,90
2016-12-16T08:20:29.226Z,90
2016-12-16T08:21:38.540Z,90
2016-12-16T08:22:48.035Z,90
2016-12-16T08:23:57.191Z,95
2016-12-16T08:25:06.672Z,100
2016-12-16T08:26:16.477Z,100
2016-12-16T08:27:26.258Z,95
2016-12-16T08:28:35.765Z,100
2016-12-16T08:29:45.258Z,100
2016-12-16T08:30:55.052Z,100
2016-12-16T08:32:04.852Z,105
2016-12-16T08:33:14.622Z,110
2016-12-16T08:34:24.399Z,115
2016-12-16T08:35:33.882Z,120
2016-12-16T08:36:43.530Z,115
2016-12-16T08:37:53.010Z,115
2016-12-16T08:39:02.805Z,125
2016-12-16T08:40:11.973Z,115
2016-12-16T08:41:21.446Z,120
2016-12-16T08:42:30.943Z,120
2016-12-16T08:43:40.129Z,120
2016-12-16T08:44:49.656Z,130
2016-12-16T08:45:59.215Z,125
2016-12-16T08:47:09.006Z,135
2016-12-16T08:48:18.788Z,135
2016-12-16T08:49:28.280Z,135
2016-12-16T08:50:37.518Z,125
2016-12-16T08:51:46.670Z,130
2016-12-16T08:52:56.160Z,135
2016-12-16T08:54:05.660Z,135
2016-12-16T08:55:15.471Z,140
2016-12-16T08:56:24.949Z,150
2016-12-16T08:57:34.165Z,150
2016-12-16T08:58:43.980Z,150
2016-12-16T08:59:53.548Z,155
2016-12-16T09:01:03.340Z,160
2016-12-16T09:02:13.132Z,155
2016-12-16T09:03:22.935Z,160
2016-12-16T09:04:32.449Z,165
2016-12-16T09:05:42.497Z,175
2016-12-16T09:06:52.327Z,170
2016-12-16T09:08:02.159Z,165
2016-12-16T09:09:11.659Z,170
2016-12-16T09:10:20.848Z,175
2016-12-16T09:11:30.656Z,180
2016-12-16T09:12:40.497Z,185
2016-12-16T09:13:49.992Z,185
2016-12-16T09:14:59.482Z,185
2016-12-16T09:16:09.365Z,185
2016-12-16T09:17:18.529Z,200
2016-12-16T09:18:28.326Z,205
2016-12-16T09:19:38.223Z,195
2016-12-16T09:20:47.749Z,200
2016-12-16T09:21:57.547Z,215
2016-12-16T09:23:07.140Z,215
2016-12-16T09:24:16.614Z,225
2016-12-16T09:25:26.413Z,215
2016-12-16T09:26:35.917Z,230
2016-12-16T09:27:45.720Z,240
2016-12-16T09:28:55.225Z,245
2016-12-16T09:30:05.012Z,245
2016-12-16T09:31:14.520Z,255
2016-12-16T09:32:24.329Z,270
2016-12-16T09:33:34.239Z,290
2016-12-16T09:34:43.754Z,280
2016-12-16T09:35:52.972Z,285
2016-12-16T09:37:02.522Z,300
2016-12-16T09:38:12.320Z,300
2016-12-16T09:39:21.804Z,300
2016-12-16T09:40:31.404Z,285
2016-12-16T09:41:40.887Z,285
2016-12-16T09:42:50.682Z,270
2016-12-16T09:44:00.189Z,280
2016-12-16T09:45:09.683Z,275
2016-12-16T09:46:19.536Z,315
2016-12-16T09:47:29.358Z,315
2016-12-16T09:48:39.191Z,325
2016-12-16T09:49:49.055Z,305
2016-12-16T09:50:58.611Z,290
2016-12-16T09:52:08.454Z,285
2016-12-16T09:53:17.956Z,290
2016-12-16T09:54:27.443Z,285
2016-12-16T09:55:37.258Z,285
2016-12-16T09:56:47.040Z,270
2016-12-16T09:57:56.812Z,270
2016-12-16T09:59:06.025Z,280
2016-12-16T10:00:15.598Z,265
2016-12-16T10:01:24.774Z,295
2016-12-16T10:02:34.343Z,265
2016-12-16T10:03:44.136Z,285
2016-12-16T10:04:53.796Z,285
2016-12-16T10:06:02.972Z,285
2016-12-16T10:07:12.786Z,280
2016-12-16T10:08:22.626Z,275
2016-12-16T10:09:32.434Z,290
2016-12-16T10:10:42.240Z,275
2016-12-16T10:11:51.702Z,270
2016-12-16T10:13:01.523Z,270
2016-12-16T10:14:11.404Z,265
2016-12-16T10:15:20.979Z,260
2016-12-16T10:16:30.807Z,240
2016-12-16T10:17:39.987Z,230
2016-12-16T10:18:49.864Z,245
2016-12-16T10:19:59.680Z,250
2016-12-16T10:21:09.648Z,245
2016-12-16T10:22:19.164Z,225
2016-12-16T10:23:28.694Z,235
2016-12-16T10:24:38.587Z,230
2016-12-16T10:25:48.459Z,250
2016-12-16T10:26:58.287Z,245
2016-12-16T10:28:08.169Z,260
2016-12-16T10:29:17.724Z,255
2016-12-16T10:30:27.232Z,250
2016-12-16T10:31:37.064Z,260
2016-12-16T10:32:46.547Z,260
2016-12-16T10:33:56.017Z,275
2016-12-16T10:35:06.051Z,270
2016-12-16T10:36:15.836Z,260
2016-12-16T10:37:25.654Z,250
2016-12-16T10:38:35.138Z,250
2016-12-16T10:39:44.692Z,235
2016-12-16T10:40:54.553Z,240
2016-12-16T10:42:04.357Z,230
2016-12-16T10:43:14.079Z,240
2016-12-16T10:44:23.918Z,225
2016-12-16T10:45:33.568Z,240
2016-12-16T10:46:43.411Z,255
2016-12-16T10:47:53.239Z,250
2016-12-16T10:49:03.068Z,250
2016-12-16T10:50:12.889Z,240
2016-12-16T10:51:22.702Z,260
2016-12-16T10:52:32.221Z,270
2016-12-16T10:53:42.049Z,265
2016-12-16T10:54:51.552Z,265
2016-12-16T10:56:00.720Z,265
2016-12-16T10:57:10.551Z,255
2016-12-16T10:58:20.387Z,265
2016-12-16T10:59:29.909Z,260
2016-12-16T11:00:39.398Z,260
2016-12-16T11:01:48.894Z,265
2016-12-16T11:02:58.772Z,260
2016-12-16T11:04:08.298Z,275
2016-12-16T11:05:18.018Z,300
2016-12-16T11:06:26.941Z,295
2016-12-16T11:07:36.807Z,270
2016-12-16T11:08:46.341Z,265
2016-12-16T11:09:56.140Z,280
2016-12-16T11:11:05.932Z,275
2016-12-16T11:12:15.783Z,270
2016-12-16T11:13:25.741Z,270
2016-12-16T11:14:35.597Z,270
2016-12-16T11:15:45.405Z,270
2016-12-16T11:16:54.992Z,275
2016-12-16T11:18:04.483Z,270
2016-12-16T11:19:13.971Z,265
2016-12-16T11:20:23.929Z,265
2016-12-16T11:21:33.784Z,265
2016-12-16T11:22:43.256Z,265
2016-12-16T11:23:52.860Z,270
2016-12-16T11:25:02.416Z,275
2016-12-16T11:26:12.227Z,280
2016-12-16T11:27:22.167Z,290
2016-12-16T11:28:32.032Z,290
2016-12-16T11:29:41.199Z,285
2016-12-16T11:30:50.701Z,290
2016-12-16T11:32:00.188Z,280
2016-12-16T11:33:09.482Z,270
2016-12-16T11:34:19.286Z,275
2016-12-16T11:35:28.514Z,280
2016-12-16T11:36:38.070Z,280
2016-12-16T11:37:47.855Z,275
2016-12-16T11:38:57.630Z,270
2016-12-16T11:40:07.119Z,285
2016-12-16T11:41:16.618Z,270
2016-12-16T11:42:26.456Z,260
2016-12-16T11:43:35.974Z,250
2016-12-16T11:44:45.876Z,255
2016-12-16T11:45:55.681Z,265
2016-12-16T11:47:05.158Z,260
2016-12-16T11:48:14.640Z,255
2016-12-16T11:49:24.151Z,265
2016-12-16T11:50:33.939Z,255
2016-12-16T11:51:43.471Z,255
2016-12-16T11:52:52.633Z,250
2016-12-16T11:54:02.434Z,255
2016-12-16T11:55:44.222Z,265
2016-12-16T11:56:54.011Z,285
2016-12-16T11:58:03.573Z,295
2016-12-16T11:59:13.406Z,285
2016-12-16T12:00:23.279Z,315
2016-12-16T12:01:33.071Z,290
2016-12-16T12:02:42.896Z,300
2016-12-16T12:03:52.698Z,295
2016-12-16T12:05:02.543Z,275
2016-12-16T12:06:12.338Z,270
2016-12-16T12:07:22.123Z,280
2016-12-16T12:08:31.612Z,290
2016-12-16T12:09:41.471Z,270
2016-12-16T12:10:51.064Z,280
2016-12-16T12:12:00.853Z,295
2016-12-16T12:13:10.060Z,325
2016-12-16T12:14:19.846Z,305
2016-12-16T12:15:29.653Z,290
2016-12-16T12:16:39.451Z,285
2016-12-16T12:17:48.972Z,290
2016-12-16T12:18:58.784Z,300
2016-12-16T12:20:08.651Z,325
2016-12-16T12:21:18.428Z,335
2016-12-16T12:22:27.334Z,385
2016-12-16T12:23:37.139Z,405
2016-12-16T12:24:46.946Z,410
2016-12-16T12:25:56.518Z,430
2016-12-16T12:27:06.309Z,435
2016-12-16T12:28:16.117Z,460
2016-12-16T12:29:25.590Z,485
2016-12-16T12:30:35.446Z,510
2016-12-16T12:31:45.028Z,535
2016-12-16T12:32:54.834Z,540
2016-12-16T12:34:04.625Z,525
2016-12-16T12:35:14.429Z,515
2016-12-16T12:36:23.907Z,500
2016-12-16T12:37:33.459Z,470
2016-12-16T12:38:43.274Z,435
2016-12-16T12:39:53.101Z,430
2016-12-16T12:41:02.648Z,420
2016-12-16T12:42:12.490Z,430
2016-12-16T12:43:22.279Z,450
2016-12-16T12:44:32.122Z,405
2016-12-16T12:45:41.916Z,400
2016-12-16T12:46:51.704Z,400
2016-12-16T12:48:01.523Z,405
2016-12-16T12:49:11.099Z,405
2016-12-16T12:50:20.648Z,410
2016-12-16T12:51:30.127Z,395
2016-12-16T12:52:39.974Z,395
2016-12-16T12:53:49.179Z,385
2016-12-16T12:54:59.056Z,360
2016-12-16T12:56:08.584Z,340
2016-12-16T12:57:18.494Z,345
2016-12-16T12:58:27.681Z,365
2016-12-16T12:59:37.525Z,360
2016-12-16T13:00:47.118Z,355
2016-12-16T13:01:56.612Z,385
2016-12-16T13:03:05.816Z,420
2016-12-16T13:04:15.638Z,370
2016-12-16T13:05:25.548Z,355
2016-12-16T13:06:35.372Z,345
2016-12-16T13:07:45.194Z,345
2016-12-16T13:08:54.993Z,360
2016-12-16T13:10:04.202Z,340
2016-12-16T13:11:13.714Z,345
2016-12-16T13:12:23.535Z,360
2016-12-16T13:13:33.480Z,365
2016-12-16T13:14:43.311Z,365
2016-12-16T13:15:52.818Z,360
2016-12-16T13:17:02.625Z,390
2016-12-16T13:18:12.142Z,395
2016-12-16T13:19:21.646Z,360
2016-12-16T13:20:31.458Z,375
2016-12-16T13:21:40.706Z,365
2016-12-16T13:22:50.526Z,320
2016-12-16T13:24:00.028Z,285
2016-12-16T13:25:09.852Z,270
2016-12-16T13:26:19.698Z,275
2016-12-16T13:27:29.517Z,295
2016-12-16T13:28:39.330Z,275
2016-12-16T13:29:48.888Z,290
2016-12-16T13:30:58.380Z,320
2016-12-16T13:32:08.168Z,315
2016-12-16T13:33:17.971Z,290
2016-12-16T13:34:27.778Z,300
2016-12-16T13:35:37.563Z,295
2016-12-16T13:36:47.043Z,300
2016-12-16T13:37:56.851Z,285
2016-12-16T13:39:06.370Z,275
2016-12-16T13:40:16.164Z,250
2016-12-16T13:41:26.014Z,235
2016-12-16T13:42:35.831Z,220
2016-12-16T13:43:45.787Z,200
2016-12-16T13:44:55.264Z,195
2016-12-16T13:46:04.824Z,185
2016-12-16T13:47:14.737Z,180
2016-12-16T13:48:24.977Z,175
2016-12-16T13:49:36.151Z,170
2016-12-16T13:50:46.113Z,180
2016-12-16T13:51:56.008Z,185
2016-12-16T13:53:05.297Z,180
2016-12-16T13:54:14.535Z,175
2016-12-16T13:55:24.296Z,165
2016-12-16T13:56:33.841Z,160
2016-12-16T13:57:43.703Z,165
2016-12-16T13:58:53.240Z,160
2016-12-16T14:00:02.747Z,165
2016-12-16T14:01:12.318Z,165
2016-12-16T14:02:22.187Z,170
2016-12-16T14:03:31.728Z,180
2016-12-16T14:04:41.266Z,190
2016-12-16T14:05:50.827Z,190
2016-12-16T14:07:00.033Z,180
2016-12-16T14:08:09.893Z,170
2016-12-16T14:09:19.482Z,160
2016-12-16T14:10:28.988Z,150
2016-12-16T14:11:39.016Z,145
2016-12-16T14:12:48.856Z,150
2016-12-16T14:13:58.354Z,150
2016-12-16T14:15:08.242Z,150
2016-12-16T14:16:17.857Z,160
2016-12-16T14:17:27.677Z,170
2016-12-16T14:18:37.238Z,160
2016-12-16T14:19:47.289Z,155
2016-12-16T14:20:57.085Z,150
2016-12-16T14:22:06.691Z,135
2016-12-16T14:23:16.512Z,130
2016-12-16T14:24:26.400Z,125
2016-12-16T14:25:36.618Z,120
2016-12-16T14:26:46.040Z,115
2016-12-16T14:27:56.259Z,115
2016-12-16T14:29:05.792Z,110
2016-12-16T14:30:15.918Z,105
2016-12-16T14:31:25.920Z,100
2016-12-16T14:32:35.884Z,95
2016-12-16T14:33:46.033Z,95
2016-12-16T14:34:55.415Z,90
2016-12-16T14:36:05.486Z,95
2016-12-16T14:37:15.015Z,85
2016-12-16T14:38:24.348Z,80
2016-12-16T14:39:34.159Z,75
2016-12-16T14:40:43.696Z,70
2016-12-16T14:41:53.487Z,65
2016-12-16T14:43:03.270Z,65
2016-12-16T14:44:13.103Z,60
2016-12-16T14:45:22.922Z,60
2016-12-16T14:46:32.470Z,60
2016-12-16T14:47:42.097Z,55
2016-12-16T14:48:51.910Z,50
2016-12-16T14:50:01.467Z,50
2016-12-16T14:51:11.325Z,45
2016-12-16T14:52:21.227Z,40
2016-12-16T14:53:33.266Z,40
2016-12-16T14:54:43.596Z,35
2016-12-16T14:55:54.031Z,30
2016-12-16T14:57:03.269Z,30
2016-12-16T14:58:12.444Z,25
2016-12-16T14:59:22.246Z,25
2016-12-16T15:00:32.179Z,25
2016-12-16T15:01:42.022Z,20
2016-12-16T15:02:51.841Z,20
2016-12-16T15:04:01.665Z,20
2016-12-16T15:05:11.468Z,20
2016-12-16T15:06:21.276Z,15
2016-12-16T15:07:31.127Z,15
2016-12-16T15:08:45.753Z,15
2016-12-16T15:09:55.497Z,15
2016-12-16T15:11:05.820Z,10
2016-12-16T15:12:15.470Z,10
2016-12-16T15:13:24.991Z,5
2016-12-16T15:14:34.168Z,5
2016-12-16T15:15:43.712Z,5
2016-12-16T15:16:53.599Z,5
2016-12-16T15:18:02.789Z,5
2016-12-16T15:19:12.623Z,0
2016-12-16T15:20:22.416Z,0
2016-12-16T15:21:32.272Z,0
2016-12-16T15:22:41.888Z,0
2016-12-16T15:23:51.376Z,0
2016-12-16T15:25:00.581Z,0
2016-12-16T15:26:10.102Z,0
2016-12-16T15:27:19.669Z,0
2016-12-16T15:28:28.853Z,0
2016-12-16T15:29:39.359Z,0
2016-12-16T15:30:49.349Z,0
2016-12-16T15:32:00.038Z,0
2016-12-16T15:33:10.106Z,0
2016-12-16T15:34:20.629Z,0
2016-12-16T15:35:30.929Z,0
2016-12-16T15:36:40.966Z,0
2016-12-16T15:37:51.572Z,0
2016-12-16T15:39:02.132Z,0
2016-12-16T15:40:12.255Z,0
2016-12-16T15:41:23.616Z,0
2016-12-16T15:42:34.582Z,0
2016-12-16T15:43:45.153Z,0
2016-12-16T15:44:55.800Z,0
2016-12-16T15:46:06.431Z,0
2016-12-16T15:47:16.558Z,0
2016-12-16T15:48:26.886Z,0
2016-12-16T15:49:37.713Z,0
2016-12-16T15:50:48.088Z,0
2016-12-16T15:51:58.073Z,0
2016-12-16T15:53:07.251Z,0
2016-12-16T15:54:17.228Z,0
2016-12-16T15:55:26.858Z,0
2016-12-16T15:56:36.693Z,0
2016-12-16T15:57:46.603Z,0
2016-12-16T15:58:56.386Z,0
2016-12-16T16:00:05.904Z,0
2016-12-16T16:01:15.741Z,0
2016-12-16T16:02:25.564Z,0
2016-12-16T16:03:35.693Z,0
2016-12-16T16:04:45.690Z,0
2016-12-16T16:05:55.509Z,0
2016-12-16T16:07:05.347Z,0
2016-12-16T16:08:14.852Z,0
2016-12-16T16:09:24.385Z,0
2016-12-16T16:10:33.867Z,0
2016-12-16T16:11:43.838Z,0
2016-12-16T16:12:53.725Z,0
2016-12-16T16:14:03.241Z,0
2016-12-16T16:15:13.210Z,0
2016-12-16T16:16:23.105Z,0
2016-12-16T16:17:32.938Z,0
2016-12-16T16:18:42.755Z,0
2016-12-16T16:19:52.575Z,0
2016-12-16T16:21:02.085Z,0
2016-12-16T16:22:11.602Z,0
2016-12-16T16:23:21.594Z,0
2016-12-16T16:24:30.868Z,0
2016-12-16T16:25:40.083Z,0
2016-12-16T16:26:49.571Z,0
2016-12-16T16:27:58.763Z,0
2016-12-16T16:29:08.620Z,0
2016-12-16T16:30:17.804Z,0
2016-12-16T16:31:27.003Z,0
2016-12-16T16:32:36.641Z,0
2016-12-16T16:33:46.418Z,0
2016-12-16T16:34:59.429Z,0
2016-12-16T16:36:44.580Z,0
2016-12-16T16:37:57.674Z,0
2016-12-16T16:39:11.429Z,0
2016-12-16T16:40:25.390Z,0